sensor_id;sensor_type;location;lat;lon;timestamp;temperature;humidity
22089;DHT22;11211;52.728;9.230;2022-08-24T04:02:42;21.20;90.00
22089;DHT22;11211;52.728;9.230;2022-08-24T04:05:44;21.20;90.10
22089;DHT22;11211;52.728;9.230;2022-08-24T04:08:11;21.20;90.00
22089;DHT22;11211;52.728;9.230;2022-08-24T04:13:55;21.20;90.00
22089;DHT22;11211;52.728;9.230;2022-08-24T04:16:34;21.20;90.40
22089;DHT22;11211;52.728;9.230;2022-08-24T04:19:30;21.20;90.10
22089;DHT22;11211;52.728;9.230;2022-08-24T04:22:11;21.20;90.10
22089;DHT22;11211;52.728;9.230;2022-08-24T04:24:46;21.20;90.10
22089;DHT22;11211;52.728;9.230;2022-08-24T04:27:14;21.20;90.10
22089;DHT22;11211;52.728;9.230;2022-08-24T04:29:41;21.20;90.00
22089;DHT22;11211;52.728;9.230;2022-08-24T04:32:17;21.20;90.10
22089;DHT22;11211;52.728;9.230;2022-08-24T04:34:46;21.20;90.10
22089;DHT22;11211;52.728;9.230;2022-08-24T04:37:14;21.20;90.10
22089;DHT22;11211;52.728;9.230;2022-08-24T04:39:42;21.20;90.10
22089;DHT22;11211;52.728;9.230;2022-08-24T04:42:19;21.20;90.10
22089;DHT22;11211;52.728;9.230;2022-08-24T04:44:49;21.20;90.10
22089;DHT22;11211;52.728;9.230;2022-08-24T04:47:19;21.10;90.00
22089;DHT22;11211;52.728;9.230;2022-08-24T04:49:50;21.20;90.10
22089;DHT22;11211;52.728;9.230;2022-08-24T04:52:20;21.20;90.10
22089;DHT22;11211;52.728;9.230;2022-08-24T04:55:08;21.20;90.10
22089;DHT22;11211;52.728;9.230;2022-08-24T04:57:42;21.20;90.10
22089;DHT22;11211;52.728;9.230;2022-08-24T05:00:15;21.20;90.10
22089;DHT22;11211;52.728;9.230;2022-08-24T05:02:42;21.20;90.10
22089;DHT22;11211;52.728;9.230;2022-08-24T05:05:17;21.20;90.10
22089;DHT22;11211;52.728;9.230;2022-08-24T05:07:44;21.20;90.10
22089;DHT22;11211;52.728;9.230;2022-08-24T05:10:11;21.10;90.10
22089;DHT22;11211;52.728;9.230;2022-08-24T05:12:47;21.20;90.10
22089;DHT22;11211;52.728;9.230;2022-08-24T05:15:16;21.20;90.10
22089;DHT22;11211;52.728;9.230;2022-08-24T05:17:44;21.20;90.10
22089;DHT22;11211;52.728;9.230;2022-08-24T05:22:53;21.20;90.10
22089;DHT22;11211;52.728;9.230;2022-08-24T05:25:20;21.20;90.10
22089;DHT22;11211;52.728;9.230;2022-08-24T05:27:47;21.20;90.10
22089;DHT22;11211;52.728;9.230;2022-08-24T05:30:16;21.20;90.10
22089;DHT22;11211;52.728;9.230;2022-08-24T05:32:43;21.20;90.10
22089;DHT22;11211;52.728;9.230;2022-08-24T05:35:10;21.20;90.10
22089;DHT22;11211;52.728;9.230;2022-08-24T05:37:38;21.20;90.20
22089;DHT22;11211;52.728;9.230;2022-08-24T05:40:12;21.20;90.20
22089;DHT22;11211;52.728;9.230;2022-08-24T05:42:40;21.20;90.20
22089;DHT22;11211;52.728;9.230;2022-08-24T05:45:07;21.20;90.20
22089;DHT22;11211;52.728;9.230;2022-08-24T05:47:35;21.10;90.20
22089;DHT22;11211;52.728;9.230;2022-08-24T05:50:04;21.20;90.20
22089;DHT22;11211;52.728;9.230;2022-08-24T05:52:31;21.10;90.20
22089;DHT22;11211;52.728;9.230;2022-08-24T05:54:59;21.20;90.30
22089;DHT22;11211;52.728;9.230;2022-08-24T05:57:31;21.20;90.30
22089;DHT22;11211;52.728;9.230;2022-08-24T05:59:58;21.10;90.30
22089;DHT22;11211;52.728;9.230;2022-08-24T06:02:26;21.20;90.40
22089;DHT22;11211;52.728;9.230;2022-08-24T06:04:53;21.20;90.40
22089;DHT22;11211;52.728;9.230;2022-08-24T06:07:20;21.20;90.40
22089;DHT22;11211;52.728;9.230;2022-08-24T06:09:47;21.20;90.50
22089;DHT22;11211;52.728;9.230;2022-08-24T06:12:14;21.20;90.50
22089;DHT22;11211;52.728;9.230;2022-08-24T06:14:46;21.20;90.50
22089;DHT22;11211;52.728;9.230;2022-08-24T06:17:13;21.20;90.50
22089;DHT22;11211;52.728;9.230;2022-08-24T06:19:40;21.20;90.50
22089;DHT22;11211;52.728;9.230;2022-08-24T06:22:08;21.20;90.50
22089;DHT22;11211;52.728;9.230;2022-08-24T06:24:36;21.20;90.50
22089;DHT22;11211;52.728;9.230;2022-08-24T06:27:20;21.20;90.50
22089;DHT22;11211;52.728;9.230;2022-08-24T06:29:51;21.20;90.60
22089;DHT22;11211;52.728;9.230;2022-08-24T06:32:18;21.20;90.60
22089;DHT22;11211;52.728;9.230;2022-08-24T06:34:46;21.20;90.70
22089;DHT22;11211;52.728;9.230;2022-08-24T06:37:13;21.10;90.70
22089;DHT22;11211;52.728;9.230;2022-08-24T06:39:40;21.20;90.70
22089;DHT22;11211;52.728;9.230;2022-08-24T06:42:07;21.20;90.70
22089;DHT22;11211;52.728;9.230;2022-08-24T06:44:35;21.20;90.70
22089;DHT22;11211;52.728;9.230;2022-08-24T06:47:04;21.20;90.70
22089;DHT22;11211;52.728;9.230;2022-08-24T06:49:31;21.10;90.70
22089;DHT22;11211;52.728;9.230;2022-08-24T06:51:58;21.20;90.70
22089;DHT22;11211;52.728;9.230;2022-08-24T06:54:25;21.20;90.70
22089;DHT22;11211;52.728;9.230;2022-08-24T06:56:52;21.20;90.70
22089;DHT22;11211;52.728;9.230;2022-08-24T06:59:21;21.20;90.70
22089;DHT22;11211;52.728;9.230;2022-08-24T07:01:47;21.20;90.70
22089;DHT22;11211;52.728;9.230;2022-08-24T07:04:16;21.10;90.70
22089;DHT22;11211;52.728;9.230;2022-08-24T07:06:44;21.20;90.70
22089;DHT22;11211;52.728;9.230;2022-08-24T07:09:11;21.20;90.70
22089;DHT22;11211;52.728;9.230;2022-08-24T07:11:38;21.20;90.70
22089;DHT22;11211;52.728;9.230;2022-08-24T07:14:06;21.20;90.70
22089;DHT22;11211;52.728;9.230;2022-08-24T07:16:33;21.20;90.70
22089;DHT22;11211;52.728;9.230;2022-08-24T07:19:00;21.10;90.70
22089;DHT22;11211;52.728;9.230;2022-08-24T07:21:29;21.20;90.70
22089;DHT22;11211;52.728;9.230;2022-08-24T07:23:58;21.20;90.70
22089;DHT22;11211;52.728;9.230;2022-08-24T07:26:27;21.20;91.10
22089;DHT22;11211;52.728;9.230;2022-08-24T07:28:58;21.20;90.80
22089;DHT22;11211;52.728;9.230;2022-08-24T07:31:30;21.20;90.80
22089;DHT22;11211;52.728;9.230;2022-08-24T07:33:57;21.20;90.80
22089;DHT22;11211;52.728;9.230;2022-08-24T07:36:24;21.20;90.80
22089;DHT22;11211;52.728;9.230;2022-08-24T07:38:52;21.20;90.80
22089;DHT22;11211;52.728;9.230;2022-08-24T07:41:20;21.20;90.80
22089;DHT22;11211;52.728;9.230;2022-08-24T07:43:47;21.20;90.90
22089;DHT22;11211;52.728;9.230;2022-08-24T07:46:14;21.20;90.90
22089;DHT22;11211;52.728;9.230;2022-08-24T07:48:41;21.20;90.90
22089;DHT22;11211;52.728;9.230;2022-08-24T07:51:10;21.20;90.90
22089;DHT22;11211;52.728;9.230;2022-08-24T07:53:38;21.20;90.90
22089;DHT22;11211;52.728;9.230;2022-08-24T07:56:07;21.20;90.90
22089;DHT22;11211;52.728;9.230;2022-08-24T07:58:34;21.20;90.90
22089;DHT22;11211;52.728;9.230;2022-08-24T08:01:01;21.20;91.00
22089;DHT22;11211;52.728;9.230;2022-08-24T08:03:29;21.20;91.00
22089;DHT22;11211;52.728;9.230;2022-08-24T08:06:01;21.20;91.00
22089;DHT22;11211;52.728;9.230;2022-08-24T08:08:28;21.20;91.00
22089;DHT22;11211;52.728;9.230;2022-08-24T08:10:57;21.20;91.00
22089;DHT22;11211;52.728;9.230;2022-08-24T08:13:27;21.20;91.10
22089;DHT22;11211;52.728;9.230;2022-08-24T08:15:55;21.20;91.10
22089;DHT22;11211;52.728;9.230;2022-08-24T08:18:23;21.20;91.10
22089;DHT22;11211;52.728;9.230;2022-08-24T08:20:49;21.20;91.20
22089;DHT22;11211;52.728;9.230;2022-08-24T08:23:17;21.20;91.20
22089;DHT22;11211;52.728;9.230;2022-08-24T08:26:01;21.20;91.30
22089;DHT22;11211;52.728;9.230;2022-08-24T08:28:30;21.20;91.30
22089;DHT22;11211;52.728;9.230;2022-08-24T08:30:57;21.20;91.30
22089;DHT22;11211;52.728;9.230;2022-08-24T08:33:25;21.20;91.40
22089;DHT22;11211;52.728;9.230;2022-08-24T08:36:00;21.20;91.40
22089;DHT22;11211;52.728;9.230;2022-08-24T08:38:28;21.20;91.40
22089;DHT22;11211;52.728;9.230;2022-08-24T08:41:05;21.20;91.40
22089;DHT22;11211;52.728;9.230;2022-08-24T08:43:42;21.20;91.40
22089;DHT22;11211;52.728;9.230;2022-08-24T08:46:24;21.20;91.50
22089;DHT22;11211;52.728;9.230;2022-08-24T08:49:23;21.20;91.50
22089;DHT22;11211;52.728;9.230;2022-08-24T08:52:18;21.20;91.50
22089;DHT22;11211;52.728;9.230;2022-08-24T08:55:16;21.20;91.60
22089;DHT22;11211;52.728;9.230;2022-08-24T08:57:54;21.20;91.70
22089;DHT22;11211;52.728;9.230;2022-08-24T09:00:26;21.20;91.70
22089;DHT22;11211;52.728;9.230;2022-08-24T09:06:16;21.20;91.90
22089;DHT22;11211;52.728;9.230;2022-08-24T09:09:00;21.30;92.00
22089;DHT22;11211;52.728;9.230;2022-08-24T09:11:39;21.30;92.10
22089;DHT22;11211;52.728;9.230;2022-08-24T09:14:32;21.20;92.10
22089;DHT22;11211;52.728;9.230;2022-08-24T09:17:13;21.20;92.10
22089;DHT22;11211;52.728;9.230;2022-08-24T09:19:56;21.20;92.10
22089;DHT22;11211;52.728;9.230;2022-08-24T09:22:25;21.20;92.10
22089;DHT22;11211;52.728;9.230;2022-08-24T09:25:23;21.30;92.10
22089;DHT22;11211;52.728;9.230;2022-08-24T09:28:04;21.20;92.00
22089;DHT22;11211;52.728;9.230;2022-08-24T09:30:55;21.20;92.00
22089;DHT22;11211;52.728;9.230;2022-08-24T09:33:28;21.20;92.00
22089;DHT22;11211;52.728;9.230;2022-08-24T09:36:08;21.20;92.00
22089;DHT22;11211;52.728;9.230;2022-08-24T09:38:49;21.20;92.00
22089;DHT22;11211;52.728;9.230;2022-08-24T09:41:51;21.20;92.00
22089;DHT22;11211;52.728;9.230;2022-08-24T09:44:38;21.20;92.00
22089;DHT22;11211;52.728;9.230;2022-08-24T09:47:27;21.20;92.10
22089;DHT22;11211;52.728;9.230;2022-08-24T09:50:21;21.20;92.20
22089;DHT22;11211;52.728;9.230;2022-08-24T09:56:08;21.20;92.30
22089;DHT22;11211;52.728;9.230;2022-08-24T09:58:56;21.20;92.30
22089;DHT22;11211;52.728;9.230;2022-08-24T10:01:30;21.30;92.40
22089;DHT22;11211;52.728;9.230;2022-08-24T10:04:16;21.20;92.40
22089;DHT22;11211;52.728;9.230;2022-08-24T10:07:02;21.30;92.40
22089;DHT22;11211;52.728;9.230;2022-08-24T10:10:00;21.20;92.30
22089;DHT22;11211;52.728;9.230;2022-08-24T10:12:38;21.20;92.30
22089;DHT22;11211;52.728;9.230;2022-08-24T10:15:13;21.20;92.20
22089;DHT22;11211;52.728;9.230;2022-08-24T10:17:50;21.20;92.20
22089;DHT22;11211;52.728;9.230;2022-08-24T10:20:28;21.20;92.20
22089;DHT22;11211;52.728;9.230;2022-08-24T10:23:32;21.20;92.10
22089;DHT22;11211;52.728;9.230;2022-08-24T10:26:06;21.20;92.20
22089;DHT22;11211;52.728;9.230;2022-08-24T10:29:07;21.30;92.20
22089;DHT22;11211;52.728;9.230;2022-08-24T10:31:42;21.30;92.30
22089;DHT22;11211;52.728;9.230;2022-08-24T10:34:25;21.30;92.30
22089;DHT22;11211;52.728;9.230;2022-08-24T10:46:38;21.30;92.40
22089;DHT22;11211;52.728;9.230;2022-08-24T10:49:49;21.30;92.40
22089;DHT22;11211;52.728;9.230;2022-08-24T10:55:32;21.30;92.50
22089;DHT22;11211;52.728;9.230;2022-08-24T10:58:36;21.30;92.40
22089;DHT22;11211;52.728;9.230;2022-08-24T11:01:16;21.30;92.50
22089;DHT22;11211;52.728;9.230;2022-08-24T11:03:49;21.30;92.50
22089;DHT22;11211;52.728;9.230;2022-08-24T11:06:18;21.20;92.80
22089;DHT22;11211;52.728;9.230;2022-08-24T11:08:58;21.30;92.50
22089;DHT22;11211;52.728;9.230;2022-08-24T11:11:30;21.30;92.50
22089;DHT22;11211;52.728;9.230;2022-08-24T11:14:00;21.30;92.50
22089;DHT22;11211;52.728;9.230;2022-08-24T11:16:31;21.30;92.50
22089;DHT22;11211;52.728;9.230;2022-08-24T11:19:00;21.30;92.50
22089;DHT22;11211;52.728;9.230;2022-08-24T11:21:38;21.30;92.50
22089;DHT22;11211;52.728;9.230;2022-08-24T11:24:09;21.30;92.50
22089;DHT22;11211;52.728;9.230;2022-08-24T11:26:51;21.30;92.50
22089;DHT22;11211;52.728;9.230;2022-08-24T11:29:19;21.30;92.50
22089;DHT22;11211;52.728;9.230;2022-08-24T11:31:50;21.30;92.40
22089;DHT22;11211;52.728;9.230;2022-08-24T11:34:29;21.30;92.40
22089;DHT22;11211;52.728;9.230;2022-08-24T11:36:57;21.30;92.50
22089;DHT22;11211;52.728;9.230;2022-08-24T11:39:29;21.30;92.50
22089;DHT22;11211;52.728;9.230;2022-08-24T11:42:10;21.30;92.50
22089;DHT22;11211;52.728;9.230;2022-08-24T11:44:44;21.30;92.50
22089;DHT22;11211;52.728;9.230;2022-08-24T11:50:25;21.30;92.50
22089;DHT22;11211;52.728;9.230;2022-08-24T11:53:10;21.30;92.50
22089;DHT22;11211;52.728;9.230;2022-08-24T11:55:47;21.30;92.50
22089;DHT22;11211;52.728;9.230;2022-08-24T11:58:24;21.30;92.50
22089;DHT22;11211;52.728;9.230;2022-08-24T12:01:01;21.30;92.50
22089;DHT22;11211;52.728;9.230;2022-08-24T12:03:47;21.30;92.50
22089;DHT22;11211;52.728;9.230;2022-08-24T12:06:24;21.30;92.50
22089;DHT22;11211;52.728;9.230;2022-08-24T12:08:57;21.30;92.40
22089;DHT22;11211;52.728;9.230;2022-08-24T12:11:31;21.30;92.40
22089;DHT22;11211;52.728;9.230;2022-08-24T12:14:06;21.30;92.30
22089;DHT22;11211;52.728;9.230;2022-08-24T12:16:39;21.30;92.30
22089;DHT22;11211;52.728;9.230;2022-08-24T12:19:13;21.30;92.30
22089;DHT22;11211;52.728;9.230;2022-08-24T12:21:44;21.30;92.20
22089;DHT22;11211;52.728;9.230;2022-08-24T12:24:15;21.30;92.20
22089;DHT22;11211;52.728;9.230;2022-08-24T12:26:46;21.30;92.20
22089;DHT22;11211;52.728;9.230;2022-08-24T12:29:20;21.30;92.10
22089;DHT22;11211;52.728;9.230;2022-08-24T12:31:50;21.30;92.10
22089;DHT22;11211;52.728;9.230;2022-08-24T12:34:26;21.20;92.10
22089;DHT22;11211;52.728;9.230;2022-08-24T12:37:00;21.30;92.10
22089;DHT22;11211;52.728;9.230;2022-08-24T12:39:33;21.20;92.00
22089;DHT22;11211;52.728;9.230;2022-08-24T12:42:07;21.30;92.00
22089;DHT22;11211;52.728;9.230;2022-08-24T12:44:42;21.30;92.00
22089;DHT22;11211;52.728;9.230;2022-08-24T12:47:11;21.30;92.00
22089;DHT22;11211;52.728;9.230;2022-08-24T12:49:48;21.30;92.00
22089;DHT22;11211;52.728;9.230;2022-08-24T12:52:43;21.30;92.00
22089;DHT22;11211;52.728;9.230;2022-08-24T12:55:27;21.30;92.00
22089;DHT22;11211;52.728;9.230;2022-08-24T12:58:07;21.30;92.00
22089;DHT22;11211;52.728;9.230;2022-08-24T13:00:40;21.30;92.00
22089;DHT22;11211;52.728;9.230;2022-08-24T13:03:23;21.30;92.00
22089;DHT22;11211;52.728;9.230;2022-08-24T13:05:55;21.30;92.00
22089;DHT22;11211;52.728;9.230;2022-08-24T13:08:33;21.30;92.00
22089;DHT22;11211;52.728;9.230;2022-08-24T13:11:06;21.20;92.00
22089;DHT22;11211;52.728;9.230;2022-08-24T13:13:46;21.30;92.00
22089;DHT22;11211;52.728;9.230;2022-08-24T13:16:50;21.20;92.00
22089;DHT22;11211;52.728;9.230;2022-08-24T13:19:32;21.30;92.00
22089;DHT22;11211;52.728;9.230;2022-08-24T13:22:37;21.30;92.00
22089;DHT22;11211;52.728;9.230;2022-08-24T13:28:07;21.30;91.90
22089;DHT22;11211;52.728;9.230;2022-08-24T13:31:01;21.20;91.90
22089;DHT22;11211;52.728;9.230;2022-08-24T13:33:36;21.30;91.90
22089;DHT22;11211;52.728;9.230;2022-08-24T13:36:38;21.30;91.90
22089;DHT22;11211;52.728;9.230;2022-08-24T13:39:22;21.30;91.90
22089;DHT22;11211;52.728;9.230;2022-08-24T13:42:02;21.30;91.90
22089;DHT22;11211;52.728;9.230;2022-08-24T13:47:33;21.30;91.90
22089;DHT22;11211;52.728;9.230;2022-08-24T13:50:26;21.30;92.00
22089;DHT22;11211;52.728;9.230;2022-08-24T13:53:04;21.30;92.50
22089;DHT22;11211;52.728;9.230;2022-08-24T13:55:43;21.30;92.50
22089;DHT22;11211;52.728;9.230;2022-08-24T13:58:33;21.40;92.80
22089;DHT22;11211;52.728;9.230;2022-08-24T14:01:18;21.40;93.20
22089;DHT22;11211;52.728;9.230;2022-08-24T14:04:01;21.40;93.30
22089;DHT22;11211;52.728;9.230;2022-08-24T14:06:34;21.40;93.40
22089;DHT22;11211;52.728;9.230;2022-08-24T14:09:16;21.40;93.30
22089;DHT22;11211;52.728;9.230;2022-08-24T14:12:01;21.40;93.20
22089;DHT22;11211;52.728;9.230;2022-08-24T14:14:50;21.40;93.10
22089;DHT22;11211;52.728;9.230;2022-08-24T14:17:27;21.30;92.90
22089;DHT22;11211;52.728;9.230;2022-08-24T14:20:29;21.30;92.90
22089;DHT22;11211;52.728;9.230;2022-08-24T14:23:04;21.40;93.00
22089;DHT22;11211;52.728;9.230;2022-08-24T14:25:35;21.40;93.50
22089;DHT22;11211;52.728;9.230;2022-08-24T14:28:31;21.40;93.70
22089;DHT22;11211;52.728;9.230;2022-08-24T14:31:21;21.40;94.00
22089;DHT22;11211;52.728;9.230;2022-08-24T14:34:10;21.40;94.10
22089;DHT22;11211;52.728;9.230;2022-08-24T14:36:49;21.40;94.20
22089;DHT22;11211;52.728;9.230;2022-08-24T14:39:23;21.40;94.30
22089;DHT22;11211;52.728;9.230;2022-08-24T14:42:10;21.30;94.30
22089;DHT22;11211;52.728;9.230;2022-08-24T14:44:58;21.30;94.40
22089;DHT22;11211;52.728;9.230;2022-08-24T14:47:45;21.20;94.40
22089;DHT22;11211;52.728;9.230;2022-08-24T14:50:26;21.20;94.40
22089;DHT22;11211;52.728;9.230;2022-08-24T14:53:28;21.20;94.50
22089;DHT22;11211;52.728;9.230;2022-08-24T14:56:17;21.10;94.40
22089;DHT22;11211;52.728;9.230;2022-08-24T14:59:09;21.10;94.40
22089;DHT22;11211;52.728;9.230;2022-08-24T15:01:49;21.10;94.40
22089;DHT22;11211;52.728;9.230;2022-08-24T15:04:32;21.10;94.40
22089;DHT22;11211;52.728;9.230;2022-08-24T15:07:30;21.00;94.40
22089;DHT22;11211;52.728;9.230;2022-08-24T15:10:09;21.00;94.40
22089;DHT22;11211;52.728;9.230;2022-08-24T15:12:46;21.00;94.40
22089;DHT22;11211;52.728;9.230;2022-08-24T15:15:28;21.00;94.40
22089;DHT22;11211;52.728;9.230;2022-08-24T15:18:04;21.00;94.40
22089;DHT22;11211;52.728;9.230;2022-08-24T15:23:44;21.00;94.40
22089;DHT22;11211;52.728;9.230;2022-08-24T15:26:26;21.00;94.50
22089;DHT22;11211;52.728;9.230;2022-08-24T15:28:59;21.00;94.50
22089;DHT22;11211;52.728;9.230;2022-08-24T15:31:40;21.00;94.40
22089;DHT22;11211;52.728;9.230;2022-08-24T15:34:29;21.00;94.10
22089;DHT22;11211;52.728;9.230;2022-08-24T15:37:04;21.00;93.90
22089;DHT22;11211;52.728;9.230;2022-08-24T15:39:34;21.00;93.50
22089;DHT22;11211;52.728;9.230;2022-08-24T15:42:12;21.10;93.30
22089;DHT22;11211;52.728;9.230;2022-08-24T15:44:42;21.10;93.10
22089;DHT22;11211;52.728;9.230;2022-08-24T15:47:26;21.10;92.90
22089;DHT22;11211;52.728;9.230;2022-08-24T15:50:03;21.10;92.70
22089;DHT22;11211;52.728;9.230;2022-08-24T15:52:42;21.10;92.50
22089;DHT22;11211;52.728;9.230;2022-08-24T15:55:32;21.10;92.40
22089;DHT22;11211;52.728;9.230;2022-08-24T16:01:24;21.10;92.10
22089;DHT22;11211;52.728;9.230;2022-08-24T16:04:37;21.10;92.00
22089;DHT22;11211;52.728;9.230;2022-08-24T16:07:15;21.20;92.00
22089;DHT22;11211;52.728;9.230;2022-08-24T16:10:02;21.20;91.90
22089;DHT22;11211;52.728;9.230;2022-08-24T16:12:47;21.10;91.80
22089;DHT22;11211;52.728;9.230;2022-08-24T16:15:29;21.20;91.80
22089;DHT22;11211;52.728;9.230;2022-08-24T16:18:07;21.20;91.80
22089;DHT22;11211;52.728;9.230;2022-08-24T16:20:39;21.10;91.70
22089;DHT22;11211;52.728;9.230;2022-08-24T16:23:21;21.20;91.70
22089;DHT22;11211;52.728;9.230;2022-08-24T16:25:50;21.20;91.70
22089;DHT22;11211;52.728;9.230;2022-08-24T16:28:42;21.20;91.70
22089;DHT22;11211;52.728;9.230;2022-08-24T16:31:14;21.20;91.70
22089;DHT22;11211;52.728;9.230;2022-08-24T16:34:26;21.10;91.60
22089;DHT22;11211;52.728;9.230;2022-08-24T16:36:54;21.10;91.60
22089;DHT22;11211;52.728;9.230;2022-08-24T16:39:26;21.20;91.60
22089;DHT22;11211;52.728;9.230;2022-08-24T16:41:57;21.20;91.60
22089;DHT22;11211;52.728;9.230;2022-08-24T16:44:26;21.20;91.60
22089;DHT22;11211;52.728;9.230;2022-08-24T16:46:54;21.20;91.50
22089;DHT22;11211;52.728;9.230;2022-08-24T16:49:22;21.20;91.50
22089;DHT22;11211;52.728;9.230;2022-08-24T16:51:56;21.20;91.80
22089;DHT22;11211;52.728;9.230;2022-08-24T16:54:26;21.20;91.40
22089;DHT22;11211;52.728;9.230;2022-08-24T16:56:55;21.20;91.80
22089;DHT22;11211;52.728;9.230;2022-08-24T16:59:29;21.20;91.40
22089;DHT22;11211;52.728;9.230;2022-08-24T17:01:59;21.20;91.40
22089;DHT22;11211;52.728;9.230;2022-08-24T17:04:29;21.20;91.40
22089;DHT22;11211;52.728;9.230;2022-08-24T17:07:06;21.20;91.40
22089;DHT22;11211;52.728;9.230;2022-08-24T17:09:39;21.20;91.40
22089;DHT22;11211;52.728;9.230;2022-08-24T17:12:09;21.20;91.30
22089;DHT22;11211;52.728;9.230;2022-08-24T17:14:40;21.20;91.30
22089;DHT22;11211;52.728;9.230;2022-08-24T17:17:12;21.20;91.30
22089;DHT22;11211;52.728;9.230;2022-08-24T17:19:42;21.20;91.30
22089;DHT22;11211;52.728;9.230;2022-08-24T17:22:19;21.20;91.30
22089;DHT22;11211;52.728;9.230;2022-08-24T17:24:54;21.20;91.20
22089;DHT22;11211;52.728;9.230;2022-08-24T17:27:31;21.20;91.20
22089;DHT22;11211;52.728;9.230;2022-08-24T17:30:02;21.20;91.20
22089;DHT22;11211;52.728;9.230;2022-08-24T17:32:31;21.20;91.20
22089;DHT22;11211;52.728;9.230;2022-08-24T17:34:59;21.20;91.20
22089;DHT22;11211;52.728;9.230;2022-08-24T17:37:31;21.20;91.10
22089;DHT22;11211;52.728;9.230;2022-08-24T17:40:01;21.20;91.10
22089;DHT22;11211;52.728;9.230;2022-08-24T17:42:33;21.20;91.10
22089;DHT22;11211;52.728;9.230;2022-08-24T17:45:02;21.20;91.10
22089;DHT22;11211;52.728;9.230;2022-08-24T17:47:42;21.20;91.10
22089;DHT22;11211;52.728;9.230;2022-08-24T17:50:15;21.20;91.00
22089;DHT22;11211;52.728;9.230;2022-08-24T17:52:48;21.20;91.10
22089;DHT22;11211;52.728;9.230;2022-08-24T17:55:20;21.20;91.10
22089;DHT22;11211;52.728;9.230;2022-08-24T17:57:48;21.20;91.10
22089;DHT22;11211;52.728;9.230;2022-08-24T18:00:20;21.20;91.10
22089;DHT22;11211;52.728;9.230;2022-08-24T18:02:54;21.20;91.00
22089;DHT22;11211;52.728;9.230;2022-08-24T18:05:22;21.20;91.10
22089;DHT22;11211;52.728;9.230;2022-08-24T18:07:55;21.20;91.00
22089;DHT22;11211;52.728;9.230;2022-08-24T18:10:30;21.20;91.10
22089;DHT22;11211;52.728;9.230;2022-08-24T18:13:11;21.20;91.00
22089;DHT22;11211;52.728;9.230;2022-08-24T18:15:39;21.20;91.50
22089;DHT22;11211;52.728;9.230;2022-08-24T18:18:28;21.20;91.10
22089;DHT22;11211;52.728;9.230;2022-08-24T18:21:02;21.20;91.10
22089;DHT22;11211;52.728;9.230;2022-08-24T18:23:30;21.20;91.10
22089;DHT22;11211;52.728;9.230;2022-08-24T18:26:01;21.20;91.10
22089;DHT22;11211;52.728;9.230;2022-08-24T18:28:29;21.20;91.20
22089;DHT22;11211;52.728;9.230;2022-08-24T18:31:01;21.20;91.20
22089;DHT22;11211;52.728;9.230;2022-08-24T18:36:28;21.20;91.20
22089;DHT22;11211;52.728;9.230;2022-08-24T18:39:06;21.20;91.20
22089;DHT22;11211;52.728;9.230;2022-08-24T18:41:37;21.20;91.30
22089;DHT22;11211;52.728;9.230;2022-08-24T18:44:23;21.20;91.30
22089;DHT22;11211;52.728;9.230;2022-08-24T18:46:52;21.20;91.30
22089;DHT22;11211;52.728;9.230;2022-08-24T18:49:27;21.20;91.30
22089;DHT22;11211;52.728;9.230;2022-08-24T18:51:55;21.20;91.30
22089;DHT22;11211;52.728;9.230;2022-08-24T18:54:30;21.20;91.30
22089;DHT22;11211;52.728;9.230;2022-08-24T18:57:03;21.20;91.20
22089;DHT22;11211;52.728;9.230;2022-08-24T18:59:33;21.20;91.20
22089;DHT22;11211;52.728;9.230;2022-08-24T19:02:05;21.20;91.20
22089;DHT22;11211;52.728;9.230;2022-08-24T19:04:52;21.20;91.20
22089;DHT22;11211;52.728;9.230;2022-08-24T19:07:19;21.20;91.20
22089;DHT22;11211;52.728;9.230;2022-08-24T19:09:47;21.20;91.20
22089;DHT22;11211;52.728;9.230;2022-08-24T19:12:20;21.20;91.20
22089;DHT22;11211;52.728;9.230;2022-08-24T19:14:49;21.20;91.10
22089;DHT22;11211;52.728;9.230;2022-08-24T19:17:34;21.20;91.10
22089;DHT22;11211;52.728;9.230;2022-08-24T19:20:05;21.20;91.10
22089;DHT22;11211;52.728;9.230;2022-08-24T19:22:33;21.20;91.10
22089;DHT22;11211;52.728;9.230;2022-08-24T19:25:01;21.20;91.10
22089;DHT22;11211;52.728;9.230;2022-08-24T19:27:37;21.20;91.10
22089;DHT22;11211;52.728;9.230;2022-08-24T19:30:12;21.20;91.10
22089;DHT22;11211;52.728;9.230;2022-08-24T19:33:06;21.20;91.10
22089;DHT22;11211;52.728;9.230;2022-08-24T19:35:47;21.20;91.10
22089;DHT22;11211;52.728;9.230;2022-08-24T19:38:51;21.20;91.10
22089;DHT22;11211;52.728;9.230;2022-08-24T19:45:19;21.20;91.10
22089;DHT22;11211;52.728;9.230;2022-08-24T19:48:14;21.20;91.00
22089;DHT22;11211;52.728;9.230;2022-08-24T19:50:52;21.20;91.00
22089;DHT22;11211;52.728;9.230;2022-08-24T19:53:22;21.20;91.00
22089;DHT22;11211;52.728;9.230;2022-08-24T19:56:00;21.20;90.90
22089;DHT22;11211;52.728;9.230;2022-08-24T19:58:38;21.20;90.90
22089;DHT22;11211;52.728;9.230;2022-08-24T20:01:09;21.20;90.90
22089;DHT22;11211;52.728;9.230;2022-08-24T20:03:36;21.20;90.90
22089;DHT22;11211;52.728;9.230;2022-08-24T20:06:04;21.20;90.90
22089;DHT22;11211;52.728;9.230;2022-08-24T20:08:31;21.20;90.90
22089;DHT22;11211;52.728;9.230;2022-08-24T20:10:58;21.20;90.80
22089;DHT22;11211;52.728;9.230;2022-08-24T20:13:26;21.20;90.80
22089;DHT22;11211;52.728;9.230;2022-08-24T20:15:56;21.20;90.70
22089;DHT22;11211;52.728;9.230;2022-08-24T20:18:28;21.20;90.70
22089;DHT22;11211;52.728;9.230;2022-08-24T20:20:56;21.20;90.60
22089;DHT22;11211;52.728;9.230;2022-08-24T20:23:30;21.20;90.60
22089;DHT22;11211;52.728;9.230;2022-08-24T20:25:58;21.20;90.60
22089;DHT22;11211;52.728;9.230;2022-08-24T20:28:30;21.20;90.50
22089;DHT22;11211;52.728;9.230;2022-08-24T20:30:58;21.20;90.50
22089;DHT22;11211;52.728;9.230;2022-08-24T20:33:28;21.20;90.50
22089;DHT22;11211;52.728;9.230;2022-08-24T20:36:01;21.20;90.50
22089;DHT22;11211;52.728;9.230;2022-08-24T20:38:42;21.20;90.40
22089;DHT22;11211;52.728;9.230;2022-08-24T20:41:09;21.20;90.40
22089;DHT22;11211;52.728;9.230;2022-08-24T20:43:36;21.20;90.40
22089;DHT22;11211;52.728;9.230;2022-08-24T20:46:04;21.20;90.40
22089;DHT22;11211;52.728;9.230;2022-08-24T20:48:32;21.20;90.40
22089;DHT22;11211;52.728;9.230;2022-08-24T20:51:00;21.20;90.40
22089;DHT22;11211;52.728;9.230;2022-08-24T20:53:27;21.20;90.40
22089;DHT22;11211;52.728;9.230;2022-08-24T20:55:55;21.20;90.40
22089;DHT22;11211;52.728;9.230;2022-08-24T20:58:22;21.20;90.40
22089;DHT22;11211;52.728;9.230;2022-08-24T21:00:49;21.20;90.40
22089;DHT22;11211;52.728;9.230;2022-08-24T21:03:16;21.20;90.30
22089;DHT22;11211;52.728;9.230;2022-08-24T21:05:45;21.20;90.30
22089;DHT22;11211;52.728;9.230;2022-08-24T21:08:13;21.20;90.30
22089;DHT22;11211;52.728;9.230;2022-08-24T21:10:40;21.20;90.30